Terminal Aerodrome Forecast
Issued by NWS

Home | Current Version | Previous Version | Text Only | Print | Product List | Glossary On
Versions: 1 2 3 4 5 6 7 8 9 10 11 12 13 14 15 16 17 18 19 20 21 22 23 24 25 26 27 28 29 30 31 32 33 34 35 36 37
000
FTUS45 KGJT 251242 AAA
TAFTEX
TAF AMD
KTEX 251242Z 2513/2612 VRB04KT 2SM -SN BR SCT005 OVC017
      TEMPO 2513/2514 P6SM NSW FEW005 SCT020 BKN035
     FM251400 VRB03KT P6SM VCSH SCT020 BKN045
      TEMPO 2514/2517 3SM -SN SCT015 BKN020
     FM251900 22010G20KT P6SM VCSH SCT025 BKN050
      TEMPO 2520/2524 VRB15G30KT 5SM -TSRA SCT030 BKN040CB
     FM260000 16006KT 5SM -RASN BKN030=

USA.gov is the U.S. government's official web portal to all federal, state and local government web resources and services.